createdAt,value
2022-10-05T00:00:57.299Z,91.35
2022-10-05T00:01:57.306Z,90.73
2022-10-05T00:02:57.287Z,90.32
2022-10-05T00:03:57.273Z,89.97
2022-10-05T00:04:57.278Z,90.07
2022-10-05T00:05:57.225Z,89.56
2022-10-05T00:06:57.249Z,89.04
2022-10-05T00:07:57.241Z,88.43
2022-10-05T00:08:57.205Z,87.92
2022-10-05T00:09:57.203Z,87.30
2022-10-05T00:10:57.239Z,87.10
2022-10-05T00:11:57.186Z,86.99
2022-10-05T00:12:57.198Z,87.06
2022-10-05T00:13:57.219Z,86.96
2022-10-05T00:14:57.173Z,86.55
2022-10-05T00:15:57.187Z,86.38
2022-10-05T00:16:57.222Z,86.42
2022-10-05T00:17:57.152Z,87.65
2022-10-05T00:18:57.153Z,87.34
2022-10-05T00:19:57.178Z,87.96
2022-10-05T00:20:57.166Z,88.21
2022-10-05T00:21:57.127Z,88.82
2022-10-05T00:22:57.137Z,89.23
2022-10-05T00:23:57.108Z,89.78
2022-10-05T00:24:57.150Z,90.50
2022-10-05T00:25:57.103Z,91.22
2022-10-05T00:26:58.356Z,91.06
2022-10-05T00:27:58.176Z,90.95
2022-10-05T00:28:57.100Z,90.81
2022-10-05T00:29:57.086Z,90.16
2022-10-05T00:30:57.078Z,89.89
2022-10-05T00:31:57.209Z,88.82
2022-10-05T00:32:59.647Z,88.68
2022-10-05T00:33:58.095Z,88.21
2022-10-05T00:34:57.073Z,87.45
2022-10-05T00:35:57.115Z,87.28
2022-10-05T00:36:57.084Z,87.65
2022-10-05T00:37:57.069Z,87.38
2022-10-05T00:38:58.073Z,88.00
2022-10-05T00:39:57.043Z,88.17
2022-10-05T00:40:57.055Z,87.65
2022-10-05T00:41:57.040Z,87.45
2022-10-05T00:42:57.007Z,86.79
2022-10-05T00:43:57.069Z,87.14
2022-10-05T00:44:57.019Z,86.58
2022-10-05T00:45:57.125Z,86.18
2022-10-05T00:46:57.002Z,86.22
2022-10-05T00:47:57.026Z,87.28
2022-10-05T00:48:56.972Z,87.79
2022-10-05T00:49:57.020Z,87.43
2022-10-05T00:50:56.979Z,89.27
2022-10-05T00:51:56.959Z,89.27
2022-10-05T00:52:56.961Z,89.07
2022-10-05T00:53:56.965Z,87.94
2022-10-05T00:54:56.975Z,88.00
2022-10-05T00:55:56.937Z,88.80
2022-10-05T00:56:56.949Z,90.18
2022-10-05T00:57:57.018Z,91.04
2022-10-05T00:58:56.931Z,91.29
2022-10-05T00:59:56.925Z,92.52
2022-10-05T01:00:58.031Z,92.52
2022-10-05T01:01:56.961Z,92.79
2022-10-05T01:02:56.892Z,92.48
2022-10-05T01:03:56.907Z,91.72
2022-10-05T01:04:56.890Z,90.18
2022-10-05T01:05:56.923Z,90.03
2022-10-05T01:06:56.914Z,88.80
2022-10-05T01:07:56.915Z,88.29
2022-10-05T01:08:56.884Z,87.77
2022-10-05T01:09:56.873Z,87.63
2022-10-05T01:10:56.890Z,87.53
2022-10-05T01:11:56.875Z,87.22
2022-10-05T01:12:56.841Z,87.12
2022-10-05T01:13:56.842Z,86.81
2022-10-05T01:14:56.837Z,86.60
2022-10-05T01:15:56.883Z,86.50
2022-10-05T01:16:56.950Z,85.82
2022-10-05T01:17:56.823Z,88.27
2022-10-05T01:18:56.880Z,88.53
2022-10-05T01:19:56.824Z,89.75
2022-10-05T01:20:56.800Z,89.29
2022-10-05T01:21:56.805Z,89.81
2022-10-05T01:22:56.805Z,89.70
2022-10-05T01:23:56.852Z,89.44
2022-10-05T01:24:56.913Z,89.73
2022-10-05T01:25:56.780Z,90.41
2022-10-05T01:26:56.790Z,91.06
2022-10-05T01:27:56.826Z,91.64
2022-10-05T01:28:56.798Z,91.70
2022-10-05T01:29:56.807Z,90.88
2022-10-05T01:30:56.764Z,90.86
2022-10-05T01:31:56.807Z,91.02
2022-10-05T01:32:56.772Z,92.14
2022-10-05T01:33:56.785Z,93.79
2022-10-05T01:34:56.825Z,94.49
2022-10-05T01:35:56.741Z,95.68
2022-10-05T01:36:56.730Z,95.89
2022-10-05T01:37:56.749Z,96.25
2022-10-05T01:38:56.757Z,96.21
2022-10-05T01:39:56.740Z,95.34
2022-10-05T01:40:56.755Z,95.08
2022-10-05T01:41:56.704Z,94.93
2022-10-05T01:42:56.717Z,94.42
2022-10-05T01:43:56.758Z,93.18
2022-10-05T01:44:56.727Z,92.92
2022-10-05T01:45:56.768Z,93.43
2022-10-05T01:46:56.718Z,95.90
2022-10-05T01:47:56.691Z,97.50
2022-10-05T01:48:56.701Z,97.61
2022-10-05T01:49:56.731Z,97.40
2022-10-05T01:50:56.691Z,98.12
2022-10-05T01:51:56.760Z,97.66
2022-10-05T01:52:56.672Z,97.66
2022-10-05T01:53:56.664Z,97.66
2022-10-05T01:54:56.661Z,97.97
2022-10-05T01:55:56.693Z,97.77
2022-10-05T01:56:56.645Z,98.18
2022-10-05T01:57:56.639Z,97.50
2022-10-05T01:58:56.632Z,97.56
2022-10-05T01:59:56.637Z,98.18
2022-10-05T02:00:56.665Z,97.87
2022-10-05T02:01:56.666Z,98.38
2022-10-05T02:02:56.629Z,98.69
2022-10-05T02:03:56.652Z,97.97
2022-10-05T02:05:02.106Z,98.44
2022-10-05T02:05:58.662Z,97.62
2022-10-05T02:06:56.637Z,97.87
2022-10-05T02:07:56.613Z,98.96
2022-10-05T02:08:56.594Z,98.69
2022-10-05T02:09:56.601Z,98.69
2022-10-05T02:10:56.583Z,98.96
2022-10-05T02:11:56.605Z,98.33
2022-10-05T02:12:56.617Z,98.65
2022-10-05T02:13:56.693Z,98.80
2022-10-05T02:14:56.562Z,98.39
2022-10-05T02:15:56.620Z,98.70
2022-10-05T02:16:56.582Z,98.39
2022-10-05T02:17:56.553Z,97.88
2022-10-05T02:18:56.586Z,97.47
2022-10-05T02:19:56.559Z,96.75
2022-10-05T02:20:56.537Z,95.15
2022-10-05T02:21:56.547Z,95.50
2022-10-05T02:22:56.519Z,95.40
2022-10-05T02:23:56.688Z,95.30
2022-10-05T02:24:56.526Z,95.81
2022-10-05T02:25:56.515Z,95.75
2022-10-05T02:26:56.528Z,96.47
2022-10-05T02:27:56.528Z,96.37
2022-10-05T02:28:56.618Z,97.25
2022-10-05T02:29:56.511Z,96.43
2022-10-05T02:30:56.494Z,96.02
2022-10-05T02:31:56.500Z,95.71
2022-10-05T02:32:56.479Z,95.77
2022-10-05T02:33:56.467Z,95.87
2022-10-05T02:34:56.541Z,94.90
2022-10-05T02:35:56.449Z,94.12
2022-10-05T02:36:56.449Z,93.76
2022-10-05T02:37:57.466Z,93.44
2022-10-05T02:38:56.459Z,93.40
2022-10-05T02:39:56.488Z,93.20
2022-10-05T02:40:56.441Z,93.04
2022-10-05T02:41:56.422Z,93.35
2022-10-05T02:42:56.426Z,93.20
2022-10-05T02:43:56.424Z,93.10
2022-10-05T02:44:56.408Z,92.48
2022-10-05T02:45:56.520Z,92.27
2022-10-05T02:46:57.649Z,91.55
2022-10-05T02:47:57.414Z,91.86
2022-10-05T02:48:56.387Z,91.51
2022-10-05T02:49:56.409Z,91.61
2022-10-05T02:50:56.384Z,91.20
2022-10-05T02:51:56.416Z,91.00
2022-10-05T02:52:56.393Z,89.87
2022-10-05T02:53:56.358Z,90.08
2022-10-05T02:54:56.410Z,88.95
2022-10-05T02:55:56.350Z,88.90
2022-10-05T02:56:56.379Z,89.62
2022-10-05T02:57:56.351Z,89.31
2022-10-05T02:58:56.336Z,88.95
2022-10-05T02:59:56.408Z,88.53
2022-10-05T03:00:56.375Z,88.84
2022-10-05T03:01:56.403Z,89.15
2022-10-05T03:02:56.377Z,89.72
2022-10-05T03:03:56.339Z,88.02
2022-10-05T03:04:56.318Z,89.54
2022-10-05T03:05:56.315Z,89.81
2022-10-05T03:06:56.347Z,89.70
2022-10-05T03:07:56.303Z,89.70
2022-10-05T03:08:56.336Z,89.81
2022-10-05T03:10:00.216Z,89.15
2022-10-05T03:10:57.323Z,88.74
2022-10-05T03:11:56.284Z,89.36
2022-10-05T03:12:56.293Z,88.95
2022-10-05T03:13:56.307Z,87.40
2022-10-05T03:14:56.316Z,87.51
2022-10-05T03:15:56.319Z,86.62
2022-10-05T03:16:56.287Z,87.79
2022-10-05T03:17:56.293Z,88.14
2022-10-05T03:18:56.256Z,89.42
2022-10-05T03:19:56.279Z,90.61
2022-10-05T03:20:56.278Z,90.20
2022-10-05T03:21:56.264Z,89.73
2022-10-05T03:22:56.238Z,90.96
2022-10-05T03:23:56.233Z,91.17
2022-10-05T03:24:56.230Z,91.72
2022-10-05T03:25:56.257Z,92.14
2022-10-05T03:26:56.256Z,92.65
2022-10-05T03:27:56.257Z,92.40
2022-10-05T03:28:56.207Z,92.40
2022-10-05T03:29:56.196Z,91.85
2022-10-05T03:30:56.345Z,91.64
2022-10-05T03:31:56.208Z,90.20
2022-10-05T03:32:56.179Z,90.09
2022-10-05T03:33:56.178Z,89.79
2022-10-05T03:34:56.186Z,89.89
2022-10-05T03:35:56.176Z,88.86
2022-10-05T03:36:56.206Z,88.62
2022-10-05T03:37:56.188Z,88.10
2022-10-05T03:38:56.204Z,88.20
2022-10-05T03:39:56.150Z,87.90
2022-10-05T03:40:56.139Z,87.90
2022-10-05T03:41:56.145Z,87.45
2022-10-05T03:42:56.150Z,86.87
2022-10-05T03:43:56.156Z,86.62
2022-10-05T03:44:56.154Z,86.11
2022-10-05T03:45:56.150Z,86.00
2022-10-05T03:46:56.101Z,85.84
2022-10-05T03:48:01.109Z,85.60
2022-10-05T03:48:58.142Z,85.84
2022-10-05T03:49:56.120Z,85.60
2022-10-05T03:50:56.096Z,86.00
2022-10-05T03:51:56.095Z,85.90
2022-10-05T03:52:56.104Z,85.33
2022-10-05T03:53:56.093Z,85.74
2022-10-05T03:54:56.111Z,85.53
2022-10-05T03:55:56.094Z,85.74
2022-10-05T03:56:56.054Z,85.74
2022-10-05T03:57:56.069Z,85.98
2022-10-05T03:58:56.061Z,85.88
2022-10-05T03:59:56.045Z,86.02
2022-10-05T04:00:56.068Z,87.60
2022-10-05T04:01:56.138Z,88.53
2022-10-05T04:02:56.129Z,90.12
2022-10-05T04:03:56.017Z,89.81
2022-10-05T04:04:56.040Z,90.43
2022-10-05T04:05:56.043Z,91.77
2022-10-05T04:06:56.050Z,92.33
2022-10-05T04:07:56.013Z,92.90
2022-10-05T04:08:56.042Z,92.86
2022-10-05T04:09:56.019Z,93.06
2022-10-05T04:10:56.031Z,92.24
2022-10-05T04:11:56.038Z,91.31
2022-10-05T04:12:55.997Z,90.75
2022-10-05T04:13:55.985Z,89.97
2022-10-05T04:14:55.990Z,90.08
2022-10-05T04:15:56.039Z,89.67
2022-10-05T04:16:56.006Z,89.31
2022-10-05T04:17:55.980Z,89.83
2022-10-05T04:18:55.959Z,89.62
2022-10-05T04:19:55.963Z,90.08
2022-10-05T04:20:55.989Z,92.03
2022-10-05T04:21:55.973Z,92.96
2022-10-05T04:22:55.984Z,93.06
2022-10-05T04:23:55.942Z,93.23
2022-10-05T04:24:55.940Z,93.54
2022-10-05T04:25:55.951Z,94.36
2022-10-05T04:26:55.928Z,94.67
2022-10-05T04:27:56.005Z,94.73
2022-10-05T04:28:55.929Z,94.93
2022-10-05T04:29:56.479Z,95.03
2022-10-05T04:30:55.925Z,94.62
2022-10-05T04:31:55.931Z,94.01
2022-10-05T04:32:55.923Z,93.24
2022-10-05T04:33:55.910Z,92.93
2022-10-05T04:34:55.975Z,91.60
2022-10-05T04:35:55.931Z,91.19
2022-10-05T04:36:55.892Z,90.88
2022-10-05T04:37:55.942Z,90.26
2022-10-05T04:38:55.902Z,88.72
2022-10-05T04:39:55.877Z,89.17
2022-10-05T04:40:55.881Z,88.82
2022-10-05T04:41:55.857Z,88.41
2022-10-05T04:42:55.908Z,88.96
2022-10-05T04:43:55.864Z,90.20
2022-10-05T04:44:59.089Z,91.23
2022-10-05T04:45:56.848Z,91.44
2022-10-05T04:46:55.916Z,92.87
2022-10-05T04:47:55.835Z,93.49
2022-10-05T04:48:55.853Z,93.49
2022-10-05T04:49:55.880Z,94.11
2022-10-05T04:50:55.810Z,94.31
2022-10-05T04:51:55.828Z,94.07
2022-10-05T04:52:55.811Z,93.59
2022-10-05T04:53:55.809Z,93.90
2022-10-05T04:54:55.839Z,93.80
2022-10-05T04:55:55.800Z,94.73
2022-10-05T04:56:55.828Z,95.24
2022-10-05T04:57:55.781Z,95.45
2022-10-05T04:58:55.842Z,96.58
2022-10-05T04:59:55.883Z,96.58
2022-10-05T05:00:55.835Z,96.78
2022-10-05T05:01:55.796Z,96.83
2022-10-05T05:02:55.762Z,97.61
2022-10-05T05:03:55.788Z,97.50
2022-10-05T05:04:55.903Z,97.81
2022-10-05T05:06:15.850Z,97.77
2022-10-05T05:06:57.776Z,97.45
2022-10-05T05:07:55.753Z,97.05
2022-10-05T05:08:55.743Z,97.30
2022-10-05T05:09:55.733Z,98.84
2022-10-05T05:10:55.732Z,99.15
2022-10-05T05:11:55.768Z,99.15
2022-10-05T05:12:55.747Z,98.94
2022-10-05T05:13:55.735Z,98.88
2022-10-05T05:14:55.713Z,98.84
2022-10-05T05:15:55.773Z,98.74
2022-10-05T05:16:55.707Z,98.84
2022-10-05T05:17:55.736Z,98.99
2022-10-05T05:18:55.685Z,99.66
2022-10-05T05:19:55.695Z,99.77
2022-10-05T05:20:55.695Z,99.56
2022-10-05T05:21:55.854Z,99.99
2022-10-05T05:22:55.666Z,99.99
2022-10-05T05:23:55.704Z,99.97
2022-10-05T05:24:55.710Z,99.82
2022-10-05T05:25:55.701Z,99.99
2022-10-05T05:26:55.695Z,99.82
2022-10-05T05:27:55.737Z,99.99
2022-10-05T05:28:55.670Z,99.66
2022-10-05T05:29:55.756Z,99.99
2022-10-05T05:30:55.828Z,99.99
2022-10-05T05:31:55.756Z,99.99
2022-10-05T05:32:55.622Z,99.82
2022-10-05T05:33:55.618Z,99.98
2022-10-05T05:34:55.625Z,99.47
2022-10-05T05:35:55.643Z,99.47
2022-10-05T05:36:55.604Z,98.70
2022-10-05T05:37:55.604Z,98.44
2022-10-05T05:38:55.642Z,98.90
2022-10-05T05:39:55.587Z,99.31
2022-10-05T05:40:55.604Z,99.67
2022-10-05T05:41:55.606Z,99.26
2022-10-05T05:42:55.607Z,99.99
2022-10-05T05:43:55.611Z,99.99
2022-10-05T05:44:55.581Z,99.99
2022-10-05T05:45:55.648Z,99.99
2022-10-05T05:47:04.748Z,99.99
2022-10-05T05:47:57.566Z,99.99
2022-10-05T05:48:55.573Z,99.99
2022-10-05T05:49:55.607Z,99.99
2022-10-05T05:50:55.561Z,99.99
2022-10-05T05:51:55.563Z,99.99
2022-10-05T05:52:55.572Z,99.99
2022-10-05T05:53:55.554Z,99.99
2022-10-05T05:54:55.551Z,99.99
2022-10-05T05:55:55.523Z,99.99
2022-10-05T05:56:55.570Z,99.99
2022-10-05T05:57:56.483Z,99.99
2022-10-05T05:58:55.518Z,99.99
2022-10-05T05:59:55.508Z,99.99
2022-10-05T06:00:55.553Z,99.99
2022-10-05T06:01:55.625Z,99.99
2022-10-05T06:02:55.636Z,99.99
2022-10-05T06:03:55.490Z,99.99
2022-10-05T06:04:55.501Z,99.99
2022-10-05T06:05:55.543Z,99.99
2022-10-05T06:06:55.524Z,99.99
2022-10-05T06:07:55.464Z,99.99
2022-10-05T06:08:55.473Z,99.99
2022-10-05T06:09:55.470Z,99.99
2022-10-05T06:10:55.533Z,99.99
2022-10-05T06:11:55.536Z,99.99
2022-10-05T06:12:58.489Z,99.99
2022-10-05T06:13:57.469Z,99.99
2022-10-05T06:14:55.463Z,99.99
2022-10-05T06:15:55.460Z,99.99
2022-10-05T06:16:56.158Z,99.99
2022-10-05T06:17:55.456Z,99.98
2022-10-05T06:18:55.422Z,99.99
2022-10-05T06:19:55.449Z,99.99
2022-10-05T06:20:55.407Z,99.99
2022-10-05T06:21:55.438Z,99.99
2022-10-05T06:22:55.444Z,99.99
2022-10-05T06:23:55.429Z,99.99
2022-10-05T06:24:55.442Z,99.99
2022-10-05T06:25:55.404Z,99.72
2022-10-05T06:26:55.411Z,99.82
2022-10-05T06:27:55.467Z,99.36
2022-10-05T06:28:55.385Z,98.95
2022-10-05T06:29:56.364Z,98.60
2022-10-05T06:30:55.440Z,99.16
2022-10-05T06:31:58.908Z,98.80
2022-10-05T06:32:56.406Z,98.70
2022-10-05T06:33:55.345Z,98.80
2022-10-05T06:34:55.340Z,98.60
2022-10-05T06:35:55.337Z,98.60
2022-10-05T06:36:55.340Z,98.80
2022-10-05T06:37:55.366Z,99.01
2022-10-05T06:38:55.333Z,98.85
2022-10-05T06:40:00.088Z,98.80
2022-10-05T06:40:57.320Z,99.01
2022-10-05T06:41:55.301Z,98.90
2022-10-05T06:42:55.324Z,98.49
2022-10-05T06:43:55.319Z,99.31
2022-10-05T06:44:55.321Z,99.31
2022-10-05T06:45:55.349Z,99.01
2022-10-05T06:46:55.286Z,99.01
2022-10-05T06:47:55.325Z,98.80
2022-10-05T06:48:55.305Z,99.11
2022-10-05T06:49:55.331Z,99.11
2022-10-05T06:50:55.373Z,98.70
2022-10-05T06:51:55.311Z,99.16
2022-10-05T06:52:55.362Z,99.52
2022-10-05T06:53:55.339Z,99.72
2022-10-05T06:54:55.399Z,99.78
2022-10-05T06:55:55.318Z,99.88
2022-10-05T06:56:55.240Z,99.68
2022-10-05T06:57:55.244Z,99.63
2022-10-05T06:58:55.227Z,99.57
2022-10-05T06:59:55.238Z,99.52
2022-10-05T07:00:55.253Z,99.02
2022-10-05T07:01:55.242Z,99.52
2022-10-05T07:02:55.192Z,99.63
2022-10-05T07:03:55.170Z,99.32
2022-10-05T07:04:55.212Z,98.71
2022-10-05T07:05:55.200Z,99.38
2022-10-05T07:06:55.164Z,99.07
2022-10-05T07:07:55.213Z,99.32
2022-10-05T07:08:55.156Z,98.86
2022-10-05T07:09:55.173Z,98.86
2022-10-05T07:10:55.157Z,99.07
2022-10-05T07:11:59.507Z,98.86
2022-10-05T07:12:57.128Z,98.93
2022-10-05T07:13:55.109Z,98.82
2022-10-05T07:14:55.099Z,98.52
2022-10-05T07:15:55.140Z,98.31
2022-10-05T07:16:55.187Z,98.11
2022-10-05T07:17:55.082Z,97.80
2022-10-05T07:18:55.177Z,98.11
2022-10-05T07:19:55.087Z,98.06
2022-10-05T07:20:55.093Z,97.60
2022-10-05T07:21:55.108Z,97.96
2022-10-05T07:22:55.072Z,97.96
2022-10-05T07:23:56.051Z,97.96
2022-10-05T07:24:55.045Z,97.04
2022-10-05T07:25:55.061Z,97.34
2022-10-05T07:26:55.060Z,96.84
2022-10-05T07:27:55.129Z,97.04
2022-10-05T07:28:55.051Z,96.43
2022-10-05T07:29:55.028Z,97.55
2022-10-05T07:30:55.083Z,97.45
2022-10-05T07:31:55.032Z,96.84
2022-10-05T07:32:55.037Z,96.18
2022-10-05T07:33:55.012Z,96.38
2022-10-05T07:34:54.991Z,95.97
2022-10-05T07:35:55.003Z,96.48
2022-10-05T07:36:55.461Z,96.12
2022-10-05T07:37:55.980Z,95.97
2022-10-05T07:38:54.998Z,94.85
2022-10-05T07:40:00.522Z,95.36
2022-10-05T07:40:56.969Z,94.95
2022-10-05T07:41:54.971Z,94.55
2022-10-05T07:42:55.042Z,94.75
2022-10-05T07:44:02.475Z,94.30
2022-10-05T07:44:57.047Z,93.69
2022-10-05T07:45:54.949Z,93.69
2022-10-05T07:46:54.951Z,93.28
2022-10-05T07:47:54.919Z,93.28
2022-10-05T07:48:54.982Z,92.87
2022-10-05T07:49:54.944Z,93.07
2022-10-05T07:50:54.890Z,92.46
2022-10-05T07:51:54.906Z,92.36
2022-10-05T07:52:54.938Z,92.05
2022-10-05T07:53:54.895Z,92.16
2022-10-05T07:54:54.919Z,92.26
2022-10-05T07:55:54.884Z,92.26
2022-10-05T07:56:54.895Z,92.05
2022-10-05T07:57:54.913Z,92.16
2022-10-05T07:58:54.837Z,92.11
2022-10-05T07:59:54.832Z,92.22
2022-10-05T08:00:54.838Z,92.01
2022-10-05T08:01:54.917Z,92.01
2022-10-05T08:02:54.899Z,91.71
2022-10-05T08:03:54.818Z,91.81
2022-10-05T08:04:54.914Z,92.01
2022-10-05T08:05:54.819Z,91.50
2022-10-05T08:06:54.855Z,91.61
2022-10-05T08:07:54.829Z,91.61
2022-10-05T08:08:54.766Z,91.61
2022-10-05T08:09:54.775Z,91.40
2022-10-05T08:10:54.836Z,91.50
2022-10-05T08:11:54.886Z,91.30
2022-10-05T08:12:54.775Z,91.09
2022-10-05T08:13:54.778Z,91.30
2022-10-05T08:14:54.790Z,91.75
2022-10-05T08:15:54.777Z,92.05
2022-10-05T08:16:54.772Z,92.46
2022-10-05T08:17:54.730Z,92.32
2022-10-05T08:18:54.697Z,92.42
2022-10-05T08:19:54.805Z,92.22
2022-10-05T08:20:54.767Z,92.11
2022-10-05T08:21:54.702Z,92.32
2022-10-05T08:22:54.791Z,92.68
2022-10-05T08:23:54.683Z,93.19
2022-10-05T08:24:54.678Z,93.33
2022-10-05T08:25:54.661Z,92.89
2022-10-05T08:26:54.655Z,92.38
2022-10-05T08:27:54.747Z,92.18
2022-10-05T08:28:54.655Z,92.13
2022-10-05T08:29:54.644Z,91.42
2022-10-05T08:30:54.660Z,91.46
2022-10-05T08:31:54.621Z,90.95
2022-10-05T08:32:54.631Z,90.91
2022-10-05T08:33:54.645Z,90.60
2022-10-05T08:34:54.614Z,90.20
2022-10-05T08:35:54.610Z,89.69
2022-10-05T08:36:54.581Z,90.09
2022-10-05T08:37:54.574Z,89.59
2022-10-05T08:38:54.627Z,89.38
2022-10-05T08:39:54.581Z,89.44
2022-10-05T08:40:54.645Z,88.83
2022-10-05T08:41:54.560Z,89.61
2022-10-05T08:42:54.550Z,89.54
2022-10-05T08:43:54.533Z,89.70
2022-10-05T08:44:54.554Z,89.20
2022-10-05T08:45:54.578Z,89.66
2022-10-05T08:46:54.558Z,89.46
2022-10-05T08:47:54.519Z,89.56
2022-10-05T08:48:54.501Z,89.87
2022-10-05T08:49:54.535Z,89.05
2022-10-05T08:50:54.479Z,89.15
2022-10-05T08:51:54.469Z,88.91
2022-10-05T08:52:54.493Z,88.46
2022-10-05T08:53:54.465Z,89.83
2022-10-05T08:54:54.463Z,88.87
2022-10-05T08:55:54.491Z,89.88
2022-10-05T08:56:54.451Z,89.17
2022-10-05T08:57:54.468Z,88.76
2022-10-05T08:58:54.440Z,88.52
2022-10-05T08:59:54.423Z,88.82
2022-10-05T09:00:54.409Z,88.73
2022-10-05T09:01:54.530Z,87.81
2022-10-05T09:02:54.469Z,87.67
2022-10-05T09:03:54.411Z,85.64
2022-10-05T09:04:54.411Z,85.84
2022-10-05T09:05:54.422Z,87.06
2022-10-05T09:06:54.386Z,86.25
2022-10-05T09:07:54.377Z,87.06
2022-10-05T09:08:54.371Z,86.45
2022-10-05T09:09:57.205Z,86.35
2022-10-05T09:10:55.357Z,86.55
2022-10-05T09:11:54.349Z,87.26
2022-10-05T09:12:54.341Z,87.06
2022-10-05T09:13:54.346Z,86.51
2022-10-05T09:15:13.600Z,86.35
2022-10-05T09:15:56.342Z,86.15
2022-10-05T09:16:54.294Z,86.25
2022-10-05T09:17:54.370Z,85.74
2022-10-05T09:18:54.304Z,86.59
2022-10-05T09:19:54.273Z,86.39
2022-10-05T09:20:54.300Z,87.00
2022-10-05T09:21:54.251Z,87.00
2022-10-05T09:22:54.377Z,87.61
2022-10-05T09:23:54.253Z,87.71
2022-10-05T09:24:54.261Z,88.68
2022-10-05T09:25:54.300Z,88.12
2022-10-05T09:26:54.215Z,87.87
2022-10-05T09:27:54.270Z,87.81
2022-10-05T09:28:54.267Z,87.26
2022-10-05T09:29:54.208Z,87.30
2022-10-05T09:30:54.250Z,87.06
2022-10-05T09:31:54.230Z,86.45
2022-10-05T09:32:55.201Z,86.55
2022-10-05T09:33:54.183Z,87.87
2022-10-05T09:34:54.148Z,87.97
2022-10-05T09:35:54.196Z,87.93
2022-10-05T09:36:54.163Z,87.02
2022-10-05T09:37:54.107Z,87.02
2022-10-05T09:38:54.120Z,87.02
2022-10-05T09:39:57.789Z,87.12
2022-10-05T09:40:56.109Z,86.91
2022-10-05T09:41:54.081Z,85.60
2022-10-05T09:42:54.094Z,85.50
2022-10-05T09:43:54.084Z,86.10
2022-10-05T09:44:54.087Z,84.85
2022-10-05T09:45:54.131Z,84.34
2022-10-05T09:46:54.100Z,84.55
2022-10-05T09:47:54.057Z,86.16
2022-10-05T09:48:54.038Z,84.44
2022-10-05T09:49:54.053Z,85.46
2022-10-05T09:50:54.169Z,84.44
2022-10-05T09:51:54.082Z,84.34
2022-10-05T09:52:54.000Z,84.10
2022-10-05T09:53:54.023Z,84.44
2022-10-05T09:54:55.030Z,84.55
2022-10-05T09:55:53.982Z,84.34
2022-10-05T09:56:53.978Z,83.83
2022-10-05T09:57:53.983Z,83.03
2022-10-05T09:58:53.993Z,83.18
2022-10-05T09:59:53.978Z,83.90
2022-10-05T10:01:03.640Z,83.63
2022-10-05T10:01:56.020Z,83.33
2022-10-05T10:02:54.106Z,83.53
2022-10-05T10:03:53.944Z,83.73
2022-10-05T10:04:53.903Z,83.23
2022-10-05T10:05:53.924Z,83.12
2022-10-05T10:06:53.935Z,83.53
2022-10-05T10:07:53.898Z,83.12
2022-10-05T10:08:53.877Z,83.53
2022-10-05T10:09:53.870Z,82.89
2022-10-05T10:10:53.857Z,83.29
2022-10-05T10:11:53.892Z,84.00
2022-10-05T10:12:53.855Z,83.29
2022-10-05T10:13:53.868Z,83.69
2022-10-05T10:14:53.846Z,84.10
2022-10-05T10:15:53.901Z,83.94
2022-10-05T10:16:53.875Z,83.69
2022-10-05T10:17:53.801Z,83.09
2022-10-05T10:18:53.843Z,82.68
2022-10-05T10:19:53.794Z,83.09
2022-10-05T10:20:53.811Z,82.07
2022-10-05T10:21:53.782Z,82.38
2022-10-05T10:22:53.777Z,82.48
2022-10-05T10:23:53.769Z,82.78
2022-10-05T10:24:53.736Z,82.78
2022-10-05T10:25:53.780Z,82.58
2022-10-05T10:26:53.737Z,81.97
2022-10-05T10:27:53.907Z,81.93
2022-10-05T10:28:53.751Z,82.34
2022-10-05T10:29:53.712Z,80.86
2022-10-05T10:30:53.789Z,80.76
2022-10-05T10:31:53.722Z,80.76
2022-10-05T10:32:53.764Z,80.96
2022-10-05T10:33:53.708Z,81.06
2022-10-05T10:34:53.713Z,81.87
2022-10-05T10:35:53.664Z,81.16
2022-10-05T10:36:53.672Z,80.25
2022-10-05T10:37:53.692Z,81.06
2022-10-05T10:38:53.698Z,81.02
2022-10-05T10:39:53.629Z,81.52
2022-10-05T10:40:53.701Z,80.62
2022-10-05T10:41:53.645Z,80.82
2022-10-05T10:42:53.627Z,81.73
2022-10-05T10:43:53.676Z,80.72
2022-10-05T10:44:53.626Z,79.40
2022-10-05T10:45:53.611Z,80.52
2022-10-05T10:46:53.855Z,79.71
2022-10-05T10:47:54.649Z,80.01
2022-10-05T10:48:53.576Z,79.91
2022-10-05T10:49:53.574Z,80.31
2022-10-05T10:50:53.614Z,79.91
2022-10-05T10:51:53.555Z,80.82
2022-10-05T10:52:53.538Z,80.68
2022-10-05T10:53:53.523Z,79.87
2022-10-05T10:54:53.554Z,79.57
2022-10-05T10:55:53.572Z,78.05
2022-10-05T10:56:53.522Z,79.33
2022-10-05T10:57:53.502Z,79.73
2022-10-05T10:58:53.523Z,80.04
2022-10-05T10:59:53.538Z,78.82
2022-10-05T11:00:53.533Z,78.62
2022-10-05T11:01:53.534Z,78.42
2022-10-05T11:02:53.484Z,78.08
2022-10-05T11:03:53.463Z,76.70
2022-10-05T11:04:53.432Z,77.40
2022-10-05T11:05:53.453Z,78.01
2022-10-05T11:06:53.451Z,78.28
2022-10-05T11:07:53.421Z,78.17
2022-10-05T11:08:53.420Z,78.48
2022-10-05T11:09:53.431Z,76.93
2022-10-05T11:10:53.400Z,76.56
2022-10-05T11:11:53.418Z,76.46
2022-10-05T11:12:53.396Z,76.86
2022-10-05T11:13:53.374Z,76.76
2022-10-05T11:14:53.382Z,76.97
2022-10-05T11:15:53.470Z,77.84
2022-10-05T11:16:53.368Z,78.34
2022-10-05T11:17:53.346Z,79.11
2022-10-05T11:18:53.362Z,77.60
2022-10-05T11:20:03.728Z,77.15
2022-10-05T11:20:55.337Z,77.76
2022-10-05T11:21:53.330Z,76.82
2022-10-05T11:22:53.306Z,77.02
2022-10-05T11:23:53.334Z,76.58
2022-10-05T11:24:53.313Z,76.07
2022-10-05T11:25:53.312Z,75.37
2022-10-05T11:26:53.279Z,74.46
2022-10-05T11:27:53.390Z,74.87
2022-10-05T11:28:53.282Z,74.93
2022-10-05T11:29:53.308Z,74.63
2022-10-05T11:30:53.278Z,75.70
2022-10-05T11:31:53.765Z,74.22
2022-10-05T11:32:53.351Z,72.20
2022-10-05T11:33:53.244Z,73.28
2022-10-05T11:34:53.243Z,74.39
2022-10-05T11:35:53.249Z,74.15
2022-10-05T11:36:53.223Z,73.25
2022-10-05T11:37:53.233Z,73.99
2022-10-05T11:38:53.205Z,73.82
2022-10-05T11:39:53.222Z,74.32
2022-10-05T11:40:53.228Z,75.03
2022-10-05T11:41:53.197Z,74.43
2022-10-05T11:42:53.180Z,74.32
2022-10-05T11:43:53.187Z,74.02
2022-10-05T11:44:53.180Z,75.77
2022-10-05T11:45:53.212Z,75.51
2022-10-05T11:46:53.240Z,76.42
2022-10-05T11:47:53.149Z,76.45
2022-10-05T11:48:53.147Z,76.55
2022-10-05T11:49:53.133Z,76.25
2022-10-05T11:50:53.132Z,76.42
2022-10-05T11:51:53.151Z,75.87
2022-10-05T11:52:53.171Z,74.90
2022-10-05T11:53:53.132Z,73.85
2022-10-05T11:55:09.997Z,74.39
2022-10-05T11:55:55.092Z,74.22
2022-10-05T11:56:54.652Z,74.08
2022-10-05T11:57:53.125Z,72.94
2022-10-05T11:58:53.078Z,72.81
2022-10-05T11:59:53.098Z,72.51
2022-10-05T12:00:53.139Z,72.20
2022-10-05T12:01:53.075Z,72.94
2022-10-05T12:02:53.192Z,72.24
2022-10-05T12:03:53.149Z,72.94
2022-10-05T12:04:53.046Z,74.05
2022-10-05T12:05:53.124Z,73.58
2022-10-05T12:06:53.046Z,74.12
2022-10-05T12:07:53.041Z,73.96
2022-10-05T12:08:53.032Z,74.12
2022-10-05T12:09:53.011Z,74.36
2022-10-05T12:10:53.033Z,74.87
2022-10-05T12:11:57.534Z,74.56
2022-10-05T12:12:54.045Z,74.93
2022-10-05T12:13:52.970Z,74.22
2022-10-05T12:14:52.998Z,74.69
2022-10-05T12:15:53.014Z,75.74
2022-10-05T12:16:52.998Z,75.74
2022-10-05T12:17:52.993Z,74.52
2022-10-05T12:18:52.993Z,75.54
2022-10-05T12:19:52.957Z,74.19
2022-10-05T12:20:52.952Z,75.70
2022-10-05T12:21:52.984Z,74.29
2022-10-05T12:22:52.937Z,74.79
2022-10-05T12:23:52.957Z,74.19
2022-10-05T12:24:52.927Z,74.59
2022-10-05T12:25:52.977Z,74.29
2022-10-05T12:26:52.928Z,74.19
2022-10-05T12:27:52.951Z,74.73
2022-10-05T12:28:52.911Z,74.52
2022-10-05T12:29:52.935Z,74.32
2022-10-05T12:30:52.890Z,74.56
2022-10-05T12:31:52.892Z,76.07
2022-10-05T12:32:54.150Z,77.42
2022-10-05T12:33:52.862Z,76.72
2022-10-05T12:34:52.902Z,77.28
2022-10-05T12:35:52.864Z,77.15
2022-10-05T12:37:06.729Z,76.84
2022-10-05T12:37:54.853Z,76.24
2022-10-05T12:38:53.008Z,76.24
2022-10-05T12:39:52.844Z,76.34
2022-10-05T12:40:52.853Z,76.14
2022-10-05T12:41:52.820Z,77.45
2022-10-05T12:42:52.821Z,76.04
2022-10-05T12:43:52.833Z,76.07
2022-10-05T12:44:52.816Z,77.08
2022-10-05T12:45:52.908Z,76.48
2022-10-05T12:46:52.819Z,76.28
2022-10-05T12:47:53.906Z,76.48
2022-10-05T12:48:53.788Z,76.88
2022-10-05T12:49:52.839Z,77.39
2022-10-05T12:50:52.798Z,77.69
2022-10-05T12:51:52.770Z,77.08
2022-10-05T12:52:52.822Z,77.99